createdAt,value
2022-09-09T00:03:59.127Z,14.90
2022-09-09T00:09:06.779Z,14.90
2022-09-09T00:14:19.337Z,14.80
2022-09-09T00:19:26.595Z,14.80
2022-09-09T00:24:40.968Z,15.00
2022-09-09T00:29:49.896Z,14.90
2022-09-09T00:34:56.554Z,14.60
2022-09-09T00:40:04.165Z,15.00
2022-09-09T00:45:27.624Z,14.50
2022-09-09T00:50:44.824Z,14.30
2022-09-09T00:55:55.937Z,14.30
2022-09-09T01:01:08.961Z,14.40
2022-09-09T01:06:18.836Z,14.50
2022-09-09T01:11:26.773Z,18.50
2022-09-09T01:16:35.657Z,14.10
2022-09-09T01:21:51.265Z,14.10
2022-09-09T01:26:59.790Z,14.10
2022-09-09T01:32:25.492Z,14.00
2022-09-09T01:37:29.120Z,13.80
2022-09-09T01:42:34.040Z,13.90
2022-09-09T01:47:38.289Z,14.00
2022-09-09T01:52:58.878Z,14.00
2022-09-09T01:58:28.250Z,13.80
2022-09-09T02:03:35.852Z,13.80
2022-09-09T02:09:00.308Z,13.90
2022-09-09T02:14:10.540Z,13.20
2022-09-09T02:19:26.796Z,13.80
2022-09-09T02:24:41.924Z,13.60
2022-09-09T02:29:56.759Z,13.60
2022-09-09T02:35:16.105Z,13.60
2022-09-09T02:40:21.392Z,13.50
2022-09-09T02:45:44.674Z,13.40
2022-09-09T02:50:58.089Z,13.50
2022-09-09T02:56:08.056Z,13.50
2022-09-09T03:01:15.721Z,13.20
2022-09-09T03:06:19.565Z,12.90
2022-09-09T03:11:28.917Z,13.10
2022-09-09T03:16:34.480Z,13.20
2022-09-09T03:21:38.257Z,13.20
2022-09-09T03:26:45.831Z,13.00
2022-09-09T03:31:54.022Z,9.10
2022-09-09T03:36:58.928Z,13.00
2022-09-09T03:42:05.082Z,13.00
2022-09-09T03:47:11.023Z,13.00
2022-09-09T03:52:15.025Z,12.90
2022-09-09T03:57:18.626Z,13.00
2022-09-09T04:02:23.648Z,13.10
2022-09-09T04:07:28.337Z,13.20
2022-09-09T04:12:33.069Z,13.20
2022-09-09T04:17:38.394Z,13.30
2022-09-09T04:22:42.043Z,9.20
2022-09-09T04:27:45.363Z,13.40
2022-09-09T04:32:50.278Z,13.50
2022-09-09T04:37:53.829Z,13.60
2022-09-09T04:42:57.201Z,13.60
2022-09-09T04:48:01.957Z,12.80
2022-09-09T04:53:07.477Z,13.70
2022-09-09T04:58:14.461Z,13.70
2022-09-09T05:03:19.907Z,10.30
2022-09-09T05:08:23.863Z,13.50
2022-09-09T05:13:27.441Z,13.50
2022-09-09T05:18:32.373Z,13.50
2022-09-09T05:23:37.010Z,13.60
2022-09-09T05:28:40.946Z,13.60
2022-09-09T05:33:47.822Z,13.80
2022-09-09T05:38:52.077Z,13.50
2022-09-09T05:43:56.574Z,13.40
2022-09-09T05:49:01.911Z,13.40
2022-09-09T05:54:08.217Z,13.30
2022-09-09T05:59:15.998Z,13.40
2022-09-09T06:04:25.348Z,13.20
2022-09-09T06:09:28.687Z,13.30
2022-09-09T06:14:33.294Z,13.50
2022-09-09T06:19:39.212Z,13.10
2022-09-09T06:24:43.936Z,13.60
2022-09-09T06:29:47.317Z,13.80
2022-09-09T06:34:54.326Z,13.90
2022-09-09T06:39:57.859Z,14.20
2022-09-09T06:45:01.884Z,14.20
2022-09-09T06:50:19.198Z,14.50
2022-09-09T06:55:22.850Z,14.80
2022-09-09T07:00:26.718Z,15.00
2022-09-09T07:05:31.624Z,15.10
2022-09-09T07:10:35.576Z,15.30
2022-09-09T07:15:39.461Z,15.60
2022-09-09T07:20:44.280Z,15.60
2022-09-09T07:25:48.532Z,15.70
2022-09-09T07:30:57.339Z,15.40
2022-09-09T07:36:08.174Z,15.10
2022-09-09T07:41:13.702Z,15.10
2022-09-09T07:46:20.431Z,15.60
2022-09-09T07:51:27.039Z,14.80
2022-09-09T07:56:33.531Z,14.50
2022-09-09T08:01:40.367Z,14.70
2022-09-09T08:06:48.652Z,14.80
2022-09-09T08:11:53.768Z,14.80
2022-09-09T08:16:58.243Z,14.70
2022-09-09T08:22:06.037Z,14.70
2022-09-09T08:27:11.357Z,15.10
2022-09-09T08:32:15.804Z,15.10
2022-09-09T08:37:21.436Z,18.80
2022-09-09T08:42:37.005Z,15.00
2022-09-09T08:47:52.241Z,15.00
2022-09-09T08:53:03.775Z,15.10
2022-09-09T08:58:15.057Z,15.40
2022-09-09T09:03:30.445Z,15.70
2022-09-09T09:08:42.096Z,16.00
2022-09-09T09:13:50.830Z,16.00
2022-09-09T09:18:56.868Z,16.10
2022-09-09T09:24:06.713Z,16.20
2022-09-09T09:29:14.235Z,16.00
2022-09-09T09:34:18.542Z,15.80
2022-09-09T09:44:53.335Z,16.70
2022-09-09T09:50:00.771Z,17.30
2022-09-09T09:55:16.132Z,18.10
2022-09-09T10:00:24.015Z,19.20
2022-09-09T10:05:38.618Z,20.10
2022-09-09T10:11:15.166Z,20.10
2022-09-09T10:16:35.313Z,20.40
2022-09-09T10:22:04.388Z,19.90
2022-09-09T10:27:20.156Z,19.20
2022-09-09T10:32:40.433Z,19.10
2022-09-09T10:38:07.939Z,19.60
2022-09-09T10:43:22.237Z,20.20
2022-09-09T10:48:35.174Z,18.50
2022-09-09T10:53:44.162Z,20.00
2022-09-09T10:58:53.165Z,20.20
2022-09-09T11:04:00.863Z,19.80
2022-09-09T11:09:06.227Z,19.80
2022-09-09T11:14:17.292Z,21.00
2022-09-09T11:19:28.119Z,21.30
2022-09-09T11:24:41.691Z,21.90
2022-09-09T11:30:44.230Z,22.20
2022-09-09T11:36:07.920Z,22.70
2022-09-09T11:41:12.123Z,22.40
2022-09-09T11:46:19.252Z,22.10
2022-09-09T11:51:29.407Z,21.20
2022-09-09T11:56:34.544Z,21.40
2022-09-09T12:01:42.619Z,23.90
2022-09-09T12:06:47.682Z,23.80
2022-09-09T12:11:51.629Z,24.90
2022-09-09T12:16:56.245Z,23.70
2022-09-09T12:22:10.881Z,23.30
2022-09-09T12:27:20.735Z,22.10
2022-09-09T12:32:27.645Z,20.50
2022-09-09T12:37:36.818Z,20.50
2022-09-09T12:42:42.785Z,21.30
2022-09-09T12:47:51.978Z,20.20
2022-09-09T12:52:58.067Z,20.90
2022-09-09T12:58:05.587Z,21.20
2022-09-09T13:03:21.357Z,21.90
2022-09-09T13:08:26.059Z,21.20
2022-09-09T13:13:33.871Z,21.70
2022-09-09T13:18:43.229Z,20.80
2022-09-09T13:23:51.575Z,21.10
2022-09-09T13:28:56.013Z,22.80
2022-09-09T13:34:01.382Z,24.10
2022-09-09T13:39:06.100Z,23.60
2022-09-09T13:44:18.971Z,23.10
2022-09-09T13:49:25.527Z,23.20
2022-09-09T13:54:28.781Z,22.50
2022-09-09T14:00:04.091Z,22.00
2022-09-09T14:04:57.373Z,24.00
2022-09-09T14:10:01.397Z,22.80
2022-09-09T14:15:05.249Z,21.40
2022-09-09T14:20:12.994Z,24.10
2022-09-09T14:25:16.444Z,24.20
2022-09-09T14:30:20.008Z,24.30
2022-09-09T14:35:24.908Z,23.40
2022-09-09T14:40:28.145Z,23.20
2022-09-09T14:45:31.529Z,23.70
2022-09-09T14:50:40.985Z,23.30
2022-09-09T14:55:44.196Z,25.10
2022-09-09T15:00:47.801Z,24.60
2022-09-09T15:05:52.379Z,22.90
2022-09-09T15:11:02.072Z,22.00
2022-09-09T15:16:09.636Z,21.50
2022-09-09T15:21:15.260Z,21.30
2022-09-09T15:26:19.136Z,20.80
2022-09-09T15:31:24.120Z,21.00
2022-09-09T15:36:30.968Z,20.80
2022-09-09T15:41:34.994Z,20.70
2022-09-09T15:46:39.964Z,20.00
2022-09-09T15:51:46.572Z,19.80
2022-09-09T15:56:53.585Z,19.80
2022-09-09T16:01:57.570Z,19.60
2022-09-09T16:07:04.604Z,19.60
2022-09-09T16:12:10.686Z,19.40
2022-09-09T16:17:15.250Z,19.50
2022-09-09T16:22:20.060Z,19.50
2022-09-09T16:27:24.214Z,19.60
2022-09-09T16:32:27.574Z,19.30
2022-09-09T16:37:32.495Z,19.30
2022-09-09T16:42:39.431Z,19.40
2022-09-09T16:47:42.994Z,19.60
2022-09-09T16:52:47.613Z,20.40
2022-09-09T16:57:51.044Z,20.40
2022-09-09T17:02:54.358Z,19.90
2022-09-09T17:07:59.492Z,19.60
2022-09-09T17:13:03.388Z,19.10
2022-09-09T17:18:07.689Z,18.80
2022-09-09T17:23:14.328Z,18.60
2022-09-09T17:28:17.716Z,18.40
2022-09-09T17:33:21.981Z,18.30
2022-09-09T17:38:29.328Z,21.30
2022-09-09T17:43:35.401Z,18.40
2022-09-09T17:48:39.394Z,18.30
2022-09-09T17:53:46.922Z,18.20
2022-09-09T17:58:50.686Z,18.00
2022-09-09T18:03:54.324Z,17.90
2022-09-09T18:09:00.452Z,17.70
2022-09-09T18:14:04.970Z,17.70
2022-09-09T18:19:12.508Z,17.80
2022-09-09T18:24:18.798Z,17.90
2022-09-09T18:29:25.654Z,17.70
2022-09-09T18:34:30.383Z,17.50
2022-09-09T18:39:36.370Z,17.10
2022-09-09T18:44:39.769Z,16.00
2022-09-09T18:49:43.146Z,14.60
2022-09-09T18:54:48.577Z,13.70
2022-09-09T18:59:54.766Z,13.70
2022-09-09T19:04:58.018Z,13.50
2022-09-09T19:10:03.344Z,13.10
2022-09-09T19:15:07.361Z,13.00
2022-09-09T19:20:11.265Z,13.40
2022-09-09T19:25:17.162Z,14.50
2022-09-09T19:30:20.594Z,13.30
2022-09-09T19:35:24.406Z,10.70
2022-09-09T19:40:31.104Z,12.60
2022-09-09T19:45:34.949Z,13.70
2022-09-09T19:50:38.454Z,13.80
2022-09-09T19:55:43.105Z,13.80
2022-09-09T20:00:46.530Z,13.90
2022-09-09T20:05:50.475Z,13.90
2022-09-09T20:10:55.691Z,13.60
2022-09-09T20:16:01.479Z,13.60
2022-09-09T20:21:07.305Z,13.40
2022-09-09T20:26:13.411Z,13.10
2022-09-09T20:31:20.513Z,13.10
2022-09-09T20:36:27.222Z,13.40
2022-09-09T20:41:33.576Z,13.30
2022-09-09T20:46:38.506Z,13.20
2022-09-09T20:51:41.753Z,13.20
2022-09-09T20:56:48.182Z,13.10
2022-09-09T21:01:52.780Z,13.10
2022-09-09T21:06:56.182Z,13.00
2022-09-09T21:12:00.853Z,12.90
2022-09-09T21:17:04.334Z,12.90
2022-09-09T21:22:07.553Z,12.80
2022-09-09T21:27:12.178Z,12.90
2022-09-09T21:32:15.382Z,12.90
2022-09-09T21:37:18.607Z,13.00
2022-09-09T21:42:23.467Z,13.00
2022-09-09T21:47:26.721Z,13.00
2022-09-09T21:52:30.691Z,13.00
2022-09-09T21:57:35.596Z,13.30
2022-09-09T22:02:38.987Z,13.20
2022-09-09T22:07:42.553Z,13.40
2022-09-09T22:12:47.324Z,13.40
2022-09-09T22:17:50.636Z,13.30
2022-09-09T22:22:53.905Z,13.30
2022-09-09T22:27:58.510Z,13.20
2022-09-09T22:33:02.729Z,13.10
2022-09-09T22:38:06.677Z,13.00
2022-09-09T22:43:16.101Z,13.10
2022-09-09T22:48:19.750Z,13.10
2022-09-09T22:53:23.041Z,13.00
2022-09-09T22:58:29.112Z,13.00
2022-09-09T23:03:33.275Z,13.00
2022-09-09T23:08:38.548Z,10.30
2022-09-09T23:13:48.349Z,12.80
2022-09-09T23:18:52.335Z,12.90
2022-09-09T23:23:56.576Z,12.80
2022-09-09T23:29:02.466Z,12.70
2022-09-09T23:34:06.592Z,12.60
2022-09-09T23:39:11.901Z,12.60
2022-09-09T23:44:16.582Z,12.60
2022-09-09T23:49:19.820Z,12.60
2022-09-09T23:54:23.037Z,12.90
2022-09-09T23:59:28.017Z,12.90
